Time;durP1;ratioP1;P1;durP2;ratioP2;P2;SDS_P1;SDS_P2;PMS_P1;PMS_P2;Temp;Humidity;BMP_temperature;BMP_pressure;BME280_temperature;BME280_humidity;BME280_pressure;Samples;Min_cycle;Max_cycle;Signal;HPM_P1;HPM_P2
2022/07/08 00:02:06;;;;;;;0.70;0.70;;;22.60;65.50;;;;;;4953852;28;20647;-72
2022/07/08 00:04:32;;;;;;;0.98;0.70;;;22.60;65.60;;;;;;4969504;28;20190;-72
2022/07/08 00:06:58;;;;;;;1.95;0.70;;;22.60;65.60;;;;;;4953653;28;20230;-72
2022/07/08 00:09:26;;;;;;;0.70;0.70;;;22.60;65.60;;;;;;4969193;28;20178;-72
2022/07/08 00:11:53;;;;;;;0.70;0.70;;;22.60;65.60;;;;;;4969613;28;20210;-72
2022/07/08 00:14:20;;;;;;;0.70;0.70;;;22.60;65.60;;;;;;4955097;28;20178;-72
2022/07/08 00:16:46;;;;;;;3.10;0.90;;;22.60;65.60;;;;;;4953500;28;20182;-72
2022/07/08 00:19:14;;;;;;;1.50;0.80;;;22.60;65.60;;;;;;4953218;28;20187;-72
2022/07/08 00:21:45;;;;;;;0.75;0.70;;;22.60;65.70;;;;;;4953637;28;20214;-72
2022/07/08 00:24:12;;;;;;;2.05;0.90;;;22.60;65.70;;;;;;4954546;28;20178;-72
2022/07/08 00:26:40;;;;;;;1.58;0.88;;;22.60;65.70;;;;;;4954570;28;20182;-73
2022/07/08 00:29:06;;;;;;;0.60;0.60;;;22.60;65.60;;;;;;4969229;28;20196;-72
2022/07/08 00:31:33;;;;;;;0.60;0.60;;;22.60;65.70;;;;;;4953173;28;20218;-72
2022/07/08 00:33:59;;;;;;;0.63;0.60;;;22.60;65.70;;;;;;4969255;28;20240;-73
2022/07/08 00:36:25;;;;;;;1.90;1.05;;;22.60;65.70;;;;;;4953417;28;20194;-73
2022/07/08 00:38:51;;;;;;;0.77;0.77;;;22.60;65.60;;;;;;4952644;28;20190;-72
2022/07/08 00:41:17;;;;;;;0.80;0.80;;;22.60;65.60;;;;;;4953134;28;20217;-72
2022/07/08 00:43:45;;;;;;;0.60;0.60;;;22.60;65.70;;;;;;4954421;28;20187;-72
2022/07/08 00:46:13;;;;;;;0.70;0.70;;;22.60;65.60;;;;;;4969169;28;20301;-72
2022/07/08 00:48:40;;;;;;;1.05;0.70;;;22.60;65.70;;;;;;4968767;28;20191;-72
2022/07/08 00:51:11;;;;;;;1.67;0.75;;;22.60;65.60;;;;;;4952815;28;20214;-72
2022/07/08 00:53:41;;;;;;;1.17;0.80;;;22.60;65.70;;;;;;4969395;28;20182;-72
2022/07/08 00:56:09;;;;;;;1.17;1.02;;;22.60;65.80;;;;;;4953291;28;20186;-72
2022/07/08 00:58:36;;;;;;;0.70;0.70;;;22.60;65.70;;;;;;4968736;28;20193;-72
2022/07/08 01:01:02;;;;;;;0.80;0.80;;;22.60;65.70;;;;;;4952963;28;20225;-72
2022/07/08 01:03:28;;;;;;;0.68;0.63;;;22.60;65.80;;;;;;4969260;28;20201;-72
2022/07/08 01:05:54;;;;;;;0.73;0.65;;;22.60;65.90;;;;;;4968990;28;20186;-73
2022/07/08 01:08:20;;;;;;;0.88;0.85;;;22.60;65.80;;;;;;4951962;28;20178;-72
2022/07/08 01:10:47;;;;;;;1.35;0.80;;;22.60;65.80;;;;;;4952758;28;20214;-72
2022/07/08 01:13:13;;;;;;;1.95;0.75;;;22.60;65.80;;;;;;4952847;28;20182;-72
2022/07/08 01:15:39;;;;;;;1.45;0.90;;;22.60;65.80;;;;;;4952782;29;20225;-72
2022/07/08 01:18:05;;;;;;;0.60;0.50;;;22.60;65.80;;;;;;4968938;28;20221;-73
2022/07/08 01:20:32;;;;;;;1.15;0.85;;;22.60;65.80;;;;;;4968430;28;20218;-72
2022/07/08 01:22:58;;;;;;;1.02;0.90;;;22.50;65.70;;;;;;4952797;28;20314;-72
2022/07/08 01:25:24;;;;;;;0.73;0.70;;;22.60;65.90;;;;;;4969274;28;20207;-72
2022/07/08 01:27:50;;;;;;;0.70;0.70;;;22.60;66.60;;;;;;4952983;28;20647;-72
2022/07/08 01:30:16;;;;;;;0.93;0.80;;;22.60;65.90;;;;;;4952192;28;20206;-72
2022/07/08 01:32:42;;;;;;;0.82;0.80;;;22.60;66.00;;;;;;4955729;28;20186;-72
2022/07/08 01:35:09;;;;;;;0.93;0.80;;;22.60;65.90;;;;;;4972560;28;20187;-72
2022/07/08 01:37:35;;;;;;;1.20;0.80;;;22.60;65.90;;;;;;4972685;28;20178;-72
2022/07/08 01:40:01;;;;;;;0.93;0.82;;;22.60;65.90;;;;;;4971871;28;20202;-72
2022/07/08 01:42:27;;;;;;;0.90;0.80;;;22.60;66.00;;;;;;4972590;28;20186;-72
2022/07/08 01:44:53;;;;;;;1.67;0.63;;;22.60;66.00;;;;;;4972334;28;20187;-73
2022/07/08 01:47:19;;;;;;;0.80;0.80;;;22.50;66.00;;;;;;4972302;28;20190;-72
2022/07/08 01:49:45;;;;;;;0.82;0.70;;;22.60;66.00;;;;;;4971707;28;20207;-72
2022/07/08 01:52:12;;;;;;;0.60;0.60;;;22.60;66.00;;;;;;4972449;28;20214;-72
2022/07/08 01:54:38;;;;;;;0.93;0.80;;;22.50;66.00;;;;;;4956158;28;20194;-73
2022/07/08 01:57:16;;;;;;;0.65;0.63;;;22.60;65.90;;;;;;4939970;29;20269;-73
2022/07/08 01:59:43;;;;;;;0.80;0.80;;;22.50;65.90;;;;;;4955422;28;20214;-73
2022/07/08 02:02:11;;;;;;;0.85;0.70;;;22.60;66.60;;;;;;4940234;29;20186;-73
2022/07/08 02:04:37;;;;;;;1.02;0.95;;;22.60;66.60;;;;;;4955866;28;20240;-72
2022/07/08 02:07:04;;;;;;;0.90;0.88;;;22.60;65.80;;;;;;4955648;28;20253;-72
2022/07/08 02:09:30;;;;;;;0.98;0.80;;;22.50;65.60;;;;;;4955050;28;20187;-72
2022/07/08 02:14:41;;;;;;;1.92;0.95;;;22.50;65.50;;;;;;4971485;28;20639;-72
2022/07/08 02:17:08;;;;;;;1.50;0.75;;;22.60;65.70;;;;;;4955570;28;20222;-72
2022/07/08 02:19:34;;;;;;;0.63;0.60;;;22.60;65.50;;;;;;4971104;28;20555;-72
2022/07/08 02:22:01;;;;;;;0.70;0.70;;;22.50;65.40;;;;;;4939577;28;20655;-72
2022/07/08 02:24:27;;;;;;;0.88;0.80;;;22.50;65.50;;;;;;4936803;28;20187;-73
2022/07/08 02:26:53;;;;;;;1.05;0.93;;;22.60;65.50;;;;;;4952539;28;20187;-73
2022/07/08 02:29:18;;;;;;;1.10;0.90;;;22.50;65.60;;;;;;4936864;29;20191;-72
2022/07/08 02:31:44;;;;;;;0.93;0.82;;;22.60;65.60;;;;;;4936095;28;20219;-72
2022/07/08 02:34:10;;;;;;;0.85;0.75;;;22.50;65.60;;;;;;4936280;29;20201;-72
2022/07/08 02:36:36;;;;;;;0.70;0.70;;;22.60;65.60;;;;;;4936079;29;20274;-72
2022/07/08 02:39:03;;;;;;;0.80;0.80;;;22.50;65.60;;;;;;4935643;29;20210;-73
2022/07/08 02:41:29;;;;;;;0.80;0.80;;;22.50;65.50;;;;;;4935869;29;20218;-73
2022/07/08 02:43:55;;;;;;;0.85;0.82;;;22.50;65.70;;;;;;4919407;29;20242;-73
2022/07/08 02:46:21;;;;;;;0.63;0.63;;;22.50;65.70;;;;;;4920015;29;20191;-72
2022/07/08 02:48:47;;;;;;;0.90;0.90;;;22.50;65.60;;;;;;4935694;29;20246;-72
2022/07/08 02:51:13;;;;;;;0.75;0.70;;;22.50;65.50;;;;;;4936008;29;20592;-72
2022/07/08 02:53:39;;;;;;;1.02;0.88;;;22.50;65.40;;;;;;4951993;29;20187;-72
2022/07/08 02:56:05;;;;;;;0.70;0.70;;;22.50;65.60;;;;;;4936040;29;20238;-72
2022/07/08 02:58:31;;;;;;;0.80;0.80;;;22.50;65.50;;;;;;4935285;28;20183;-72
2022/07/08 03:00:56;;;;;;;0.98;0.90;;;22.50;65.60;;;;;;4935697;29;20222;-73
2022/07/08 03:03:22;;;;;;;1.05;0.90;;;22.50;65.60;;;;;;4951879;29;20274;-73
2022/07/08 03:05:48;;;;;;;1.38;0.80;;;22.50;65.40;;;;;;4935462;28;20203;-73
2022/07/08 03:08:14;;;;;;;2.83;1.00;;;22.50;65.40;;;;;;4951530;28;20283;-73
2022/07/08 03:10:40;;;;;;;1.15;0.90;;;22.50;65.40;;;;;;4951185;28;20271;-72
2022/07/08 03:13:05;;;;;;;1.85;0.90;;;22.50;65.30;;;;;;4951689;29;20175;-72
2022/07/08 03:15:31;;;;;;;1.00;0.90;;;22.50;65.30;;;;;;4935660;29;20194;-72
2022/07/08 03:17:57;;;;;;;1.60;1.02;;;22.50;65.40;;;;;;4935480;29;20187;-72
2022/07/08 03:20:23;;;;;;;1.17;1.00;;;22.50;65.40;;;;;;4936050;29;20695;-72
2022/07/08 03:22:48;;;;;;;1.50;1.05;;;22.50;65.50;;;;;;4951370;28;20265;-72
2022/07/08 03:25:14;;;;;;;0.88;0.88;;;22.50;65.40;;;;;;4935593;29;20795;-73
2022/07/08 03:27:40;;;;;;;0.90;0.90;;;22.40;65.40;;;;;;4936477;29;20247;-73
2022/07/08 03:30:07;;;;;;;1.08;0.93;;;22.50;65.50;;;;;;4935769;29;20242;-72
2022/07/08 03:32:33;;;;;;;0.90;0.90;;;22.50;65.50;;;;;;4935287;29;20191;-72
2022/07/08 03:34:59;;;;;;;0.95;0.95;;;22.40;65.40;;;;;;4951349;29;20327;-72
2022/07/08 03:37:25;;;;;;;1.58;0.93;;;22.50;65.60;;;;;;4935294;29;20329;-72
2022/07/08 03:39:53;;;;;;;0.95;0.95;;;22.50;65.70;;;;;;4950309;28;20218;-72
2022/07/08 03:42:19;;;;;;;1.42;1.05;;;22.50;65.60;;;;;;4951359;28;20319;-72
2022/07/08 03:44:47;;;;;;;0.80;0.80;;;22.40;65.40;;;;;;4935163;28;20183;-72
2022/07/08 03:47:13;;;;;;;1.50;1.20;;;22.50;65.50;;;;;;4936033;29;20188;-72
2022/07/08 03:49:39;;;;;;;0.90;0.90;;;22.50;65.50;;;;;;4950321;28;20213;-72
2022/07/08 03:52:06;;;;;;;1.00;0.95;;;22.50;65.30;;;;;;4934887;28;20229;-72
2022/07/08 03:54:31;;;;;;;1.00;0.90;;;22.40;65.20;;;;;;4934707;28;20210;-73
2022/07/08 03:56:57;;;;;;;1.08;0.93;;;22.50;65.40;;;;;;4934562;28;20572;-73
2022/07/08 03:59:23;;;;;;;1.10;0.95;;;22.50;65.50;;;;;;4933881;29;20237;-72
2022/07/08 04:01:49;;;;;;;1.55;0.88;;;22.50;66.10;;;;;;4950591;29;20180;-72
2022/07/08 04:04:15;;;;;;;0.90;0.90;;;22.40;65.20;;;;;;4935693;29;20226;-72
2022/07/08 04:06:41;;;;;;;1.35;1.20;;;22.40;65.20;;;;;;4934336;29;20282;-72
2022/07/08 04:09:06;;;;;;;1.80;1.10;;;22.40;65.20;;;;;;4934084;29;20223;-72
2022/07/08 04:11:32;;;;;;;0.98;0.95;;;22.40;65.10;;;;;;4934435;29;20606;-72
2022/07/08 04:13:58;;;;;;;1.38;1.00;;;22.50;65.30;;;;;;4934312;29;20199;-72
2022/07/08 04:16:24;;;;;;;1.40;1.00;;;22.50;65.30;;;;;;4950359;28;20183;-72
2022/07/08 04:18:49;;;;;;;1.05;1.05;;;22.40;65.20;;;;;;4952864;28;20700;-73
2022/07/08 04:21:15;;;;;;;1.17;1.17;;;22.40;65.10;;;;;;4969945;28;20214;-72
2022/07/08 04:23:41;;;;;;;1.55;1.20;;;22.40;65.20;;;;;;4953435;29;20569;-72
2022/07/08 04:26:07;;;;;;;1.20;1.10;;;22.40;65.20;;;;;;4953677;28;20187;-73
2022/07/08 04:28:36;;;;;;;1.02;0.90;;;22.40;65.10;;;;;;4968972;28;20197;-72
2022/07/08 04:31:02;;;;;;;1.02;0.93;;;22.40;65.20;;;;;;4953557;28;20236;-72
2022/07/08 04:33:27;;;;;;;1.33;1.20;;;22.40;65.20;;;;;;4954447;28;20191;-73
2022/07/08 04:35:53;;;;;;;1.85;1.08;;;22.40;65.30;;;;;;4953017;29;20198;-72
2022/07/08 04:38:19;;;;;;;1.15;1.05;;;22.40;65.10;;;;;;4953346;28;20179;-72
2022/07/08 04:40:45;;;;;;;1.42;1.17;;;22.40;65.10;;;;;;4952901;29;20214;-72
2022/07/08 04:43:12;;;;;;;2.97;1.08;;;22.40;65.00;;;;;;4953178;29;20698;-73
2022/07/08 04:45:39;;;;;;;2.17;1.20;;;22.40;65.10;;;;;;4969371;28;20229;-73
2022/07/08 04:48:05;;;;;;;1.52;1.17;;;22.40;64.90;;;;;;4953172;29;20194;-73
2022/07/08 04:50:31;;;;;;;1.83;1.33;;;22.40;64.80;;;;;;4952311;28;20233;-72
2022/07/08 04:52:57;;;;;;;1.42;1.33;;;22.40;64.80;;;;;;4969363;28;20655;-72
2022/07/08 04:55:29;;;;;;;1.63;1.38;;;22.40;64.70;;;;;;4952974;28;20193;-73
2022/07/08 04:58:00;;;;;;;1.70;1.40;;;22.40;64.60;;;;;;4954686;29;20190;-72
2022/07/08 05:00:28;;;;;;;2.25;1.40;;;22.40;64.60;;;;;;4952336;28;20210;-72
2022/07/08 05:02:54;;;;;;;1.30;1.10;;;22.40;65.40;;;;;;4954011;28;20171;-72
2022/07/08 05:05:21;;;;;;;1.85;1.20;;;22.40;64.40;;;;;;4951757;29;20186;-72
2022/07/08 05:07:50;;;;;;;1.52;1.30;;;22.40;64.30;;;;;;4937997;29;20307;-73
2022/07/08 05:10:17;;;;;;;1.63;1.20;;;22.40;64.30;;;;;;4937332;28;20211;-72
2022/07/08 05:12:44;;;;;;;1.60;1.35;;;22.40;64.30;;;;;;4937897;29;20184;-72
2022/07/08 05:15:12;;;;;;;1.20;1.17;;;22.40;64.30;;;;;;4937741;29;20183;-72
2022/07/08 05:17:39;;;;;;;2.10;1.25;;;22.40;64.00;;;;;;4937366;28;20668;-73
2022/07/08 05:20:07;;;;;;;1.35;1.20;;;22.40;64.20;;;;;;4952464;28;20282;-73
2022/07/08 05:22:33;;;;;;;2.47;1.38;;;22.40;64.20;;;;;;4937232;29;20326;-72
2022/07/08 05:24:58;;;;;;;1.40;1.30;;;22.40;64.20;;;;;;4953376;28;20293;-73
2022/07/08 05:27:24;;;;;;;1.80;1.38;;;22.40;64.20;;;;;;4936485;29;20664;-73
2022/07/08 05:29:50;;;;;;;4.15;1.30;;;22.40;64.30;;;;;;4936367;28;20211;-73
2022/07/08 05:32:16;;;;;;;1.67;1.48;;;22.40;63.90;;;;;;4953016;28;20243;-73
2022/07/08 05:34:44;;;;;;;1.27;1.15;;;22.40;64.10;;;;;;4953008;28;20333;-73
2022/07/08 05:37:11;;;;;;;2.17;1.75;;;22.40;64.10;;;;;;4952656;28;20183;-73
2022/07/08 05:39:39;;;;;;;1.67;1.40;;;22.40;64.10;;;;;;4937418;29;20203;-72
2022/07/08 05:42:08;;;;;;;1.98;1.40;;;22.40;64.10;;;;;;4937091;29;20195;-73
2022/07/08 05:44:36;;;;;;;1.50;1.40;;;22.40;64.00;;;;;;4922872;29;20546;-73
2022/07/08 05:47:03;;;;;;;1.83;1.25;;;22.40;64.10;;;;;;4952498;28;20198;-72
2022/07/08 05:49:30;;;;;;;1.77;1.38;;;22.40;64.00;;;;;;4936200;29;20282;-73
2022/07/08 05:51:55;;;;;;;1.65;1.30;;;22.40;64.00;;;;;;4952565;28;20230;-73
2022/07/08 05:54:21;;;;;;;1.60;1.50;;;22.40;63.90;;;;;;4936422;29;20191;-73
2022/07/08 05:56:47;;;;;;;2.25;1.40;;;22.40;64.20;;;;;;4938082;29;20175;-73
2022/07/08 05:59:13;;;;;;;2.00;1.35;;;22.40;63.90;;;;;;4936239;29;20621;-73
2022/07/08 06:01:39;;;;;;;2.08;1.17;;;22.40;63.70;;;;;;4936596;29;20227;-73
2022/07/08 06:04:05;;;;;;;1.60;1.50;;;22.40;63.60;;;;;;4937603;29;20686;-73
2022/07/08 06:06:31;;;;;;;2.47;1.42;;;22.40;63.60;;;;;;4951628;29;20190;-72
2022/07/08 06:08:56;;;;;;;1.58;1.48;;;22.40;63.80;;;;;;4939681;29;20198;-70
2022/07/08 06:11:22;;;;;;;1.75;1.65;;;22.40;63.90;;;;;;4938002;28;20222;-73
2022/07/08 06:13:48;;;;;;;1.42;1.20;;;22.40;63.80;;;;;;4955462;28;20190;-73
2022/07/08 06:16:14;;;;;;;2.05;1.48;;;22.40;63.70;;;;;;4955219;28;20187;-73
2022/07/08 06:18:40;;;;;;;1.60;1.38;;;22.40;63.80;;;;;;4938822;29;20186;-73
2022/07/08 06:21:05;;;;;;;3.08;1.45;;;22.40;63.80;;;;;;4937986;28;20218;-73
2022/07/08 06:23:31;;;;;;;2.20;1.33;;;22.40;63.70;;;;;;4936019;29;20191;-73
2022/07/08 06:25:57;;;;;;;1.40;1.30;;;22.40;63.80;;;;;;4951775;28;20254;-72
2022/07/08 06:28:24;;;;;;;1.27;1.10;;;22.40;63.90;;;;;;4952003;29;20194;-73
2022/07/08 06:30:50;;;;;;;2.10;1.60;;;22.40;63.80;;;;;;4936446;29;20220;-72
2022/07/08 06:33:16;;;;;;;1.52;1.42;;;22.40;63.80;;;;;;4935971;29;20663;-73
2022/07/08 06:35:42;;;;;;;2.25;1.50;;;22.40;63.80;;;;;;4935861;29;20191;-72
2022/07/08 06:38:08;;;;;;;3.03;1.60;;;22.40;64.50;;;;;;4935708;28;20200;-73
2022/07/08 06:40:34;;;;;;;2.03;1.80;;;22.40;63.60;;;;;;4935486;28;20303;-73
2022/07/08 06:43:00;;;;;;;2.83;1.70;;;22.40;63.60;;;;;;4951880;28;20273;-73
2022/07/08 06:45:25;;;;;;;2.42;1.48;;;22.40;63.60;;;;;;4919819;29;20270;-73
2022/07/08 06:47:51;;;;;;;2.03;1.70;;;22.40;63.40;;;;;;4951869;28;20183;-72
2022/07/08 06:50:17;;;;;;;1.65;1.48;;;22.40;63.40;;;;;;4935083;29;20703;-72
2022/07/08 06:52:43;;;;;;;1.52;1.40;;;22.40;63.40;;;;;;4951470;29;20194;-72
2022/07/08 06:55:09;;;;;;;1.67;1.50;;;22.40;63.50;;;;;;4936593;29;20183;-73
2022/07/08 06:57:35;;;;;;;1.50;1.40;;;22.40;63.60;;;;;;4935529;29;20187;-73
2022/07/08 07:00:01;;;;;;;1.30;1.20;;;22.40;63.40;;;;;;4934799;28;20224;-72
2022/07/08 07:02:26;;;;;;;1.77;1.20;;;22.40;63.40;;;;;;4951497;29;20195;-72
2022/07/08 07:04:52;;;;;;;1.75;1.60;;;22.40;63.40;;;;;;4935245;29;20195;-73
2022/07/08 07:07:18;;;;;;;1.55;1.40;;;22.40;63.40;;;;;;4935195;29;20191;-73
2022/07/08 07:09:44;;;;;;;2.78;1.40;;;22.40;63.40;;;;;;4935911;29;20582;-73
2022/07/08 07:12:10;;;;;;;2.25;1.60;;;22.40;63.40;;;;;;4936337;29;20574;-73
2022/07/08 07:14:36;;;;;;;2.65;1.60;;;22.40;63.40;;;;;;4935192;28;20343;-73
2022/07/08 07:17:02;;;;;;;2.40;1.50;;;22.40;63.40;;;;;;4935017;29;20570;-73
2022/07/08 07:19:28;;;;;;;1.67;1.42;;;22.40;63.40;;;;;;4950566;29;20194;-72
2022/07/08 07:21:54;;;;;;;2.28;1.58;;;22.40;63.40;;;;;;4935080;28;20286;-73
2022/07/08 07:24:23;;;;;;;1.20;1.10;;;22.40;63.40;;;;;;4919446;29;20258;-73
2022/07/08 07:26:49;;;;;;;1.40;1.30;;;22.50;63.50;;;;;;4936191;29;20199;-73
2022/07/08 07:29:15;;;;;;;2.05;1.70;;;22.50;63.50;;;;;;4933895;29;20191;-73
2022/07/08 07:31:41;;;;;;;1.30;1.20;;;22.40;63.50;;;;;;4934686;29;20223;-73
2022/07/08 07:34:07;;;;;;;1.75;1.13;;;22.50;63.60;;;;;;4950898;29;20191;-73
2022/07/08 07:36:33;;;;;;;2.50;1.40;;;22.40;63.40;;;;;;4934488;29;20187;-73
2022/07/08 07:38:59;;;;;;;2.03;1.45;;;22.40;63.40;;;;;;4938615;29;20182;-72
2022/07/08 07:41:25;;;;;;;1.60;1.50;;;22.40;64.20;;;;;;4953984;28;20210;-73
2022/07/08 07:43:51;;;;;;;2.03;1.65;;;22.40;63.40;;;;;;4969988;28;20193;-73
2022/07/08 07:46:17;;;;;;;1.83;1.23;;;22.40;63.40;;;;;;4969722;28;20195;-73
2022/07/08 07:48:42;;;;;;;2.33;1.33;;;22.50;63.50;;;;;;4969867;28;20248;-73
2022/07/08 07:51:08;;;;;;;1.70;1.40;;;22.50;63.30;;;;;;4968828;28;20230;-73
2022/07/08 07:53:34;;;;;;;1.58;1.48;;;22.50;63.20;;;;;;4969717;28;20187;-73
2022/07/08 07:55:59;;;;;;;1.58;1.15;;;22.50;63.20;;;;;;4969553;28;20178;-72
2022/07/08 07:58:26;;;;;;;1.63;1.40;;;22.50;63.50;;;;;;4953485;28;20218;-73
2022/07/08 08:00:52;;;;;;;2.67;1.33;;;22.50;63.00;;;;;;4952791;28;20705;-73
2022/07/08 08:03:18;;;;;;;1.65;1.30;;;22.50;63.10;;;;;;4969655;28;20217;-73
2022/07/08 08:05:45;;;;;;;2.72;1.40;;;22.50;63.60;;;;;;4976738;28;20193;-72
2022/07/08 08:08:11;;;;;;;1.88;1.70;;;22.50;63.50;;;;;;4956606;28;20225;-73
2022/07/08 08:10:37;;;;;;;1.40;1.30;;;22.50;63.10;;;;;;4971925;28;20213;-73
2022/07/08 08:13:04;;;;;;;1.80;1.42;;;22.60;63.00;;;;;;4988700;28;20662;-73
2022/07/08 08:15:32;;;;;;;2.83;1.67;;;22.50;62.70;;;;;;4956427;28;20186;-73
2022/07/08 08:17:59;;;;;;;1.48;1.38;;;22.50;62.80;;;;;;4988611;28;20232;-73
2022/07/08 08:20:29;;;;;;;1.98;1.38;;;22.60;62.60;;;;;;4971891;28;20206;-73
2022/07/08 08:22:55;;;;;;;1.77;1.23;;;22.60;62.80;;;;;;4988568;28;20186;-73
2022/07/08 08:25:21;;;;;;;2.55;1.50;;;22.60;63.10;;;;;;4956494;28;20181;-73
2022/07/08 08:27:47;;;;;;;2.15;1.40;;;22.60;63.20;;;;;;4953884;29;20182;-73
2022/07/08 08:30:16;;;;;;;2.00;1.30;;;22.60;63.20;;;;;;4953550;28;20203;-73
2022/07/08 08:32:42;;;;;;;3.33;1.67;;;22.60;62.90;;;;;;4952828;29;20218;-73
2022/07/08 08:35:09;;;;;;;1.80;1.25;;;22.60;63.10;;;;;;4954269;28;20198;-73
2022/07/08 08:37:35;;;;;;;1.50;1.40;;;22.60;63.00;;;;;;4953084;28;20182;-73
2022/07/08 08:40:10;;;;;;;2.28;1.70;;;22.60;63.60;;;;;;4952310;28;20211;-73
2022/07/08 08:42:38;;;;;;;1.77;1.30;;;22.60;62.90;;;;;;4952515;28;20194;-73
2022/07/08 08:45:05;;;;;;;1.73;1.30;;;22.60;63.10;;;;;;4953759;28;20186;-72
2022/07/08 08:47:33;;;;;;;1.30;1.20;;;22.60;63.00;;;;;;4954032;28;20194;-73
2022/07/08 08:52:52;;;;;;;1.90;1.25;;;22.60;63.40;;;;;;4959979;28;20201;-73
2022/07/08 08:55:26;;;;;;;1.90;1.42;;;22.60;62.80;;;;;;4952959;29;20202;-73
2022/07/08 08:57:57;;;;;;;1.40;1.10;;;22.60;62.90;;;;;;4952621;29;20633;-73
2022/07/08 09:00:25;;;;;;;2.30;1.60;;;22.70;66.30;;;;;;4968092;28;20214;-73
2022/07/08 09:02:54;;;;;;;2.35;1.25;;;22.70;64.80;;;;;;4952585;29;20194;-73
2022/07/08 09:05:22;;;;;;;2.28;1.60;;;22.70;63.70;;;;;;4936324;29;20253;-73
2022/07/08 09:07:49;;;;;;;1.50;1.40;;;22.70;63.50;;;;;;4952706;28;20614;-73
2022/07/08 09:10:18;;;;;;;1.77;1.23;;;22.70;63.40;;;;;;4967938;28;20209;-73
2022/07/08 09:13:16;;;;;;;1.67;1.55;;;22.70;63.60;;;;;;4952342;29;20261;-73
2022/07/08 09:15:55;;;;;;;1.98;1.42;;;22.70;63.70;;;;;;4934878;29;20234;-73
2022/07/08 09:18:27;;;;;;;1.20;1.10;;;22.70;63.10;;;;;;4968711;28;20196;-73
2022/07/08 09:20:55;;;;;;;3.30;1.45;;;22.70;63.40;;;;;;4952010;28;20218;-73
2022/07/08 09:23:29;;;;;;;1.88;1.20;;;22.70;63.80;;;;;;4968601;28;20246;-73
2022/07/08 09:26:06;;;;;;;1.90;1.35;;;22.70;63.20;;;;;;4952579;29;20215;-73
2022/07/08 09:28:43;;;;;;;1.52;1.42;;;22.70;63.20;;;;;;4936622;29;20197;-73
2022/07/08 09:31:15;;;;;;;1.25;1.10;;;22.70;63.80;;;;;;4951979;28;20217;-72
2022/07/08 09:33:43;;;;;;;1.80;1.50;;;22.70;63.20;;;;;;4953806;28;20182;-73
2022/07/08 09:36:10;;;;;;;1.77;1.23;;;22.70;63.10;;;;;;4968568;28;20225;-73
2022/07/08 09:38:38;;;;;;;2.97;1.50;;;22.70;63.70;;;;;;4952494;29;20183;-73
2022/07/08 09:41:09;;;;;;;2.13;1.20;;;22.70;63.40;;;;;;4952011;28;20233;-73
2022/07/08 09:43:48;;;;;;;2.17;1.48;;;22.70;63.80;;;;;;4952353;28;20194;-73
2022/07/08 09:46:14;;;;;;;1.25;1.15;;;22.70;63.80;;;;;;4951886;28;20557;-72
2022/07/08 09:48:40;;;;;;;2.05;1.20;;;22.60;63.10;;;;;;4933021;29;20190;-73
2022/07/08 09:51:08;;;;;;;1.95;1.00;;;22.70;63.00;;;;;;4932752;29;20230;-73
2022/07/08 09:53:36;;;;;;;1.65;1.10;;;22.70;62.80;;;;;;4951617;28;20239;-73
2022/07/08 09:56:03;;;;;;;1.63;1.30;;;22.70;62.70;;;;;;4952349;29;20242;-73
2022/07/08 09:58:32;;;;;;;2.85;1.38;;;22.70;62.80;;;;;;4936524;28;20191;-73
2022/07/08 10:01:00;;;;;;;1.73;1.25;;;22.70;62.90;;;;;;4951871;28;20231;-73
2022/07/08 10:03:28;;;;;;;2.22;1.40;;;22.70;62.80;;;;;;4936484;29;20234;-73
2022/07/08 10:05:54;;;;;;;1.20;1.10;;;22.70;62.80;;;;;;4935936;29;20190;-73
2022/07/08 10:08:23;;;;;;;1.52;1.27;;;22.60;62.80;;;;;;4936432;29;20187;-73
2022/07/08 10:10:49;;;;;;;1.63;1.20;;;22.70;63.00;;;;;;4919635;29;20226;-73
2022/07/08 10:13:19;;;;;;;1.77;1.17;;;22.70;62.60;;;;;;4941895;28;20178;-73
2022/07/08 10:15:48;;;;;;;1.85;1.50;;;22.70;62.80;;;;;;4990984;28;20182;-73
2022/07/08 10:18:44;;;;;;;1.35;1.25;;;22.70;62.60;;;;;;4990873;28;20224;-73
2022/07/08 10:21:16;;;;;;;1.95;1.30;;;22.70;62.70;;;;;;4974112;28;20721;-73
2022/07/08 10:23:54;;;;;;;1.70;1.27;;;22.80;62.60;;;;;;4958355;28;20197;-73
2022/07/08 10:26:40;;;;;;;1.73;1.30;;;22.70;63.60;;;;;;4939100;29;20198;-73
2022/07/08 10:29:10;;;;;;;2.33;1.15;;;22.70;62.90;;;;;;4954607;29;20187;-73
2022/07/08 10:31:53;;;;;;;1.52;1.08;;;22.70;62.80;;;;;;4955036;28;20290;-73
2022/07/08 10:34:22;;;;;;;1.33;1.23;;;22.70;63.00;;;;;;4955011;29;20563;-73
2022/07/08 10:36:53;;;;;;;1.55;1.35;;;22.70;63.00;;;;;;4948757;28;20223;-73
2022/07/08 10:39:40;;;;;;;2.08;1.20;;;22.60;63.40;;;;;;4943360;28;20187;-73
2022/07/08 10:42:09;;;;;;;2.60;1.33;;;22.70;63.20;;;;;;4968750;28;20178;-73
2022/07/08 10:44:44;;;;;;;2.47;1.55;;;22.70;62.60;;;;;;4943809;29;20226;-73
2022/07/08 10:47:10;;;;;;;1.33;1.23;;;22.70;63.20;;;;;;4964043;28;20593;-72
2022/07/08 10:49:46;;;;;;;1.27;0.93;;;22.70;63.00;;;;;;4941964;29;20206;-73
2022/07/08 10:52:14;;;;;;;1.70;1.13;;;22.70;62.80;;;;;;4944397;29;20214;-73
2022/07/08 10:54:40;;;;;;;1.33;1.20;;;22.80;62.90;;;;;;4943610;28;20212;-73
2022/07/08 10:57:26;;;;;;;2.15;1.25;;;22.70;62.70;;;;;;4944995;28;20206;-73
2022/07/08 11:00:07;;;;;;;2.30;1.58;;;22.70;62.70;;;;;;4949130;29;20221;-72
2022/07/08 11:02:41;;;;;;;2.00;1.35;;;22.70;62.90;;;;;;4954479;29;20198;-72
2022/07/08 11:05:33;;;;;;;2.90;1.25;;;22.70;63.10;;;;;;4954444;28;20664;-73
2022/07/08 11:08:20;;;;;;;1.65;1.30;;;22.70;63.20;;;;;;4970625;28;20194;-72
2022/07/08 11:10:47;;;;;;;3.03;1.45;;;22.70;62.70;;;;;;4970046;28;20226;-73
2022/07/08 11:13:13;;;;;;;2.33;1.80;;;22.70;63.50;;;;;;4937806;28;20198;-72
2022/07/08 11:15:39;;;;;;;3.13;1.80;;;22.70;63.10;;;;;;4963450;28;20187;-73
2022/07/08 11:18:06;;;;;;;2.47;2.00;;;22.70;63.30;;;;;;4955415;28;20249;-72
2022/07/08 11:20:33;;;;;;;3.88;2.55;;;22.70;63.80;;;;;;4936142;29;20199;-72
2022/07/08 11:23:04;;;;;;;4.88;2.80;;;22.80;63.90;;;;;;4919954;29;20186;-73
2022/07/08 11:25:31;;;;;;;3.33;3.00;;;22.70;63.90;;;;;;4935467;29;20338;-73
2022/07/08 11:27:57;;;;;;;4.10;2.75;;;22.70;63.80;;;;;;4935237;28;20187;-73
2022/07/08 11:30:23;;;;;;;4.60;3.00;;;22.80;63.90;;;;;;4949622;28;20214;-72
2022/07/08 11:32:51;;;;;;;5.45;3.47;;;22.70;64.60;;;;;;4934821;29;20215;-73
2022/07/08 11:35:21;;;;;;;3.63;2.90;;;22.70;63.90;;;;;;4934791;28;20284;-72
2022/07/08 11:37:47;;;;;;;3.33;2.90;;;22.70;65.00;;;;;;4950834;28;20183;-73
2022/07/08 11:40:18;;;;;;;3.40;3.08;;;22.70;64.20;;;;;;4934260;28;20199;-72
2022/07/08 11:42:44;;;;;;;3.97;3.08;;;22.70;64.70;;;;;;4936168;29;20184;-73
2022/07/08 11:45:12;;;;;;;4.40;3.65;;;22.80;64.90;;;;;;4950621;28;20240;-73
2022/07/08 11:47:39;;;;;;;4.50;3.53;;;22.70;65.00;;;;;;4950565;28;20187;-73
2022/07/08 11:50:08;;;;;;;4.30;3.17;;;22.70;63.90;;;;;;4933922;29;20222;-72
2022/07/08 11:52:34;;;;;;;3.33;3.03;;;22.80;64.80;;;;;;4951786;28;20224;-73
2022/07/08 11:55:01;;;;;;;5.13;3.55;;;22.70;64.50;;;;;;4969805;28;20190;-73
2022/07/08 11:57:29;;;;;;;5.13;3.90;;;22.80;65.00;;;;;;4953684;28;20183;-72
2022/07/08 11:59:55;;;;;;;5.05;3.55;;;22.70;64.90;;;;;;4952793;28;20297;-72
2022/07/08 12:02:24;;;;;;;4.88;3.65;;;22.70;65.50;;;;;;4969692;28;20646;-73
2022/07/08 12:04:51;;;;;;;5.70;3.67;;;22.70;65.20;;;;;;4952785;28;20233;-73
2022/07/08 12:07:26;;;;;;;4.30;3.88;;;22.70;63.80;;;;;;4970122;28;20190;-73
2022/07/08 12:10:03;;;;;;;4.60;4.07;;;22.70;65.40;;;;;;4969562;28;20301;-73
2022/07/08 12:12:34;;;;;;;4.97;3.80;;;22.70;65.10;;;;;;4970434;28;20206;-73
2022/07/08 12:15:16;;;;;;;4.88;4.05;;;22.70;63.90;;;;;;4954078;28;20179;-73
2022/07/08 12:17:56;;;;;;;4.55;4.10;;;22.70;63.80;;;;;;4970029;28;20194;-73
2022/07/08 12:20:37;;;;;;;4.72;4.25;;;22.70;64.30;;;;;;4948833;28;20240;-73
2022/07/08 12:23:03;;;;;;;5.00;3.55;;;22.70;63.00;;;;;;4957507;28;20173;-73
2022/07/08 12:25:50;;;;;;;4.32;3.80;;;22.70;63.80;;;;;;4973913;28;20369;-73
2022/07/08 12:28:24;;;;;;;6.22;4.45;;;22.70;63.50;;;;;;4953832;28;20199;-73
2022/07/08 12:30:50;;;;;;;3.92;3.53;;;22.70;63.00;;;;;;4939030;29;20234;-73
2022/07/08 12:33:32;;;;;;;5.60;4.10;;;22.70;63.00;;;;;;4944770;28;20635;-73
2022/07/08 12:35:57;;;;;;;4.88;3.55;;;22.70;63.00;;;;;;4954482;29;20190;-73
2022/07/08 12:38:25;;;;;;;4.45;3.80;;;22.70;63.10;;;;;;4955303;28;20627;-73
2022/07/08 12:40:51;;;;;;;4.47;3.70;;;22.70;63.10;;;;;;4968826;28;20206;-73
2022/07/08 12:43:17;;;;;;;5.13;3.78;;;22.70;62.90;;;;;;4969822;28;20186;-73
2022/07/08 12:45:44;;;;;;;5.25;4.03;;;22.70;62.40;;;;;;4953382;28;20620;-72
2022/07/08 12:48:10;;;;;;;4.00;3.30;;;22.70;62.70;;;;;;4954937;28;20344;-73
2022/07/08 12:50:35;;;;;;;4.53;3.65;;;22.70;62.60;;;;;;4968951;28;20301;-72
2022/07/08 12:53:03;;;;;;;5.78;3.50;;;22.80;62.60;;;;;;4953657;28;20290;-72
2022/07/08 12:55:29;;;;;;;3.60;2.92;;;22.70;62.50;;;;;;4937242;29;20190;-72
2022/07/08 12:57:55;;;;;;;4.63;3.55;;;22.70;62.60;;;;;;4969176;28;20240;-73